Time;durP1;ratioP1;P1;durP2;ratioP2;P2;SDS_P1;SDS_P2;PMS_P1;PMS_P2;Temp;Humidity;BMP_temperature;BMP_pressure;BME280_temperature;BME280_humidity;BME280_pressure;Samples;Min_cycle;Max_cycle;Signal;HPM_P1;HPM_P2
2022/07/07 00:00:58;;;;;;;9.33;7.20;;;;;;;14.35;100.00;101732.97;4995115;28;20279;-81
2022/07/07 00:03:24;;;;;;;8.87;7.30;;;;;;;14.35;100.00;101737.25;4994866;28;20290;-81
2022/07/07 00:05:49;;;;;;;9.20;7.37;;;;;;;14.35;100.00;101727.81;4994799;28;20645;-81
2022/07/07 00:08:15;;;;;;;8.67;7.47;;;;;;;14.35;100.00;101726.94;4994798;28;20225;-81
2022/07/07 00:10:40;;;;;;;8.57;7.40;;;;;;;14.36;100.00;101713.25;4994088;28;20191;-81
2022/07/07 00:13:06;;;;;;;7.83;7.03;;;;;;;14.38;100.00;101719.28;4977392;28;20275;-80
2022/07/07 00:15:31;;;;;;;7.83;6.77;;;;;;;14.41;100.00;101709.88;4993213;28;20198;-81
2022/07/07 00:17:57;;;;;;;7.50;6.80;;;;;;;14.40;100.00;101705.56;4995000;28;20204;-80
2022/07/07 00:20:22;;;;;;;9.13;7.10;;;;;;;14.39;100.00;101698.69;4992444;28;20668;-80
2022/07/07 00:22:48;;;;;;;7.90;7.03;;;;;;;14.39;100.00;101695.22;4994484;28;20274;-80
2022/07/07 00:25:13;;;;;;;8.03;7.23;;;;;;;14.40;100.00;101697.84;4994093;28;20339;-82
2022/07/07 00:27:39;;;;;;;9.03;6.77;;;;;;;14.41;100.00;101678.09;4993863;28;20219;-81
2022/07/07 00:30:05;;;;;;;7.03;6.20;;;;;;;14.40;100.00;101678.94;4993465;28;20191;-81
2022/07/07 00:32:31;;;;;;;6.90;6.20;;;;;;;14.40;100.00;101671.19;4999471;28;20192;-80
2022/07/07 00:34:56;;;;;;;6.80;6.10;;;;;;;14.42;100.00;101666.94;4992268;28;20216;-81
2022/07/07 00:37:22;;;;;;;7.67;6.30;;;;;;;14.46;100.00;101673.91;4993252;28;20192;-81
2022/07/07 00:39:47;;;;;;;6.23;5.63;;;;;;;14.46;100.00;101663.59;4992914;28;20575;-81
2022/07/07 00:42:15;;;;;;;6.37;5.77;;;;;;;14.48;100.00;101664.47;4992696;28;20180;-80
2022/07/07 00:44:41;;;;;;;6.43;5.80;;;;;;;14.48;100.00;101657.63;4995275;28;20239;-81
2022/07/07 00:47:07;;;;;;;6.43;5.63;;;;;;;14.46;100.00;101659.28;4992711;28;20218;-80
2022/07/07 00:49:32;;;;;;;6.13;5.53;;;;;;;14.50;100.00;101647.34;4993762;28;20183;-81
2022/07/07 00:51:59;;;;;;;5.67;5.17;;;;;;;14.50;100.00;101645.59;4992775;28;20184;-80
2022/07/07 00:54:25;;;;;;;5.70;4.83;;;;;;;14.51;100.00;101646.50;4993106;28;20211;-79
2022/07/07 00:56:50;;;;;;;5.73;5.23;;;;;;;14.51;100.00;101642.19;4994605;28;20203;-80
2022/07/07 00:59:16;;;;;;;5.23;4.73;;;;;;;14.54;100.00;101642.25;4992244;28;20206;-81
2022/07/07 01:01:42;;;;;;;6.30;5.00;;;;;;;14.54;100.00;101638.81;4975706;28;20191;-80
2022/07/07 01:04:11;;;;;;;5.20;4.80;;;;;;;14.54;100.00;101634.50;4993773;28;20219;-79
2022/07/07 01:06:38;;;;;;;5.30;4.60;;;;;;;14.57;100.00;101632.00;4975853;28;20592;-80
2022/07/07 01:09:04;;;;;;;5.40;4.90;;;;;;;14.57;100.00;101634.56;4976157;28;20294;-80
2022/07/07 01:11:53;;;;;;;4.53;4.13;;;;;;;14.57;100.00;101621.69;4992144;28;20230;-81
2022/07/07 01:14:19;;;;;;;5.70;5.10;;;;;;;14.58;100.00;101626.00;4992179;28;20184;-80
2022/07/07 01:16:46;;;;;;;5.43;4.90;;;;;;;14.60;100.00;101623.44;4991748;28;20691;-81
2022/07/07 01:21:49;;;;;;;5.63;4.83;;;;;;;14.66;100.00;101613.22;4912024;29;20226;-82
2022/07/07 01:24:14;;;;;;;5.07;4.63;;;;;;;14.67;100.00;101609.78;4898522;29;20194;-82
2022/07/07 01:26:40;;;;;;;5.13;4.63;;;;;;;14.66;100.00;101610.63;4930421;29;20327;-82
2022/07/07 01:29:05;;;;;;;5.70;4.77;;;;;;;14.65;100.00;101603.75;4914330;29;20258;-81
2022/07/07 01:31:31;;;;;;;5.93;5.33;;;;;;;14.65;100.00;101596.88;4914784;29;20281;-78
2022/07/07 01:33:56;;;;;;;5.77;5.20;;;;;;;14.65;100.00;101588.28;4930346;29;20190;-82
2022/07/07 01:36:22;;;;;;;5.50;5.00;;;;;;;14.66;100.00;101592.59;4914537;29;20193;-82
2022/07/07 01:38:47;;;;;;;6.07;5.57;;;;;;;14.67;100.00;101584.88;4929534;29;20191;-80
2022/07/07 01:41:13;;;;;;;6.00;5.40;;;;;;;14.67;100.00;101576.25;4914690;29;20225;-82
2022/07/07 01:43:38;;;;;;;4.90;4.50;;;;;;;14.69;100.00;101578.03;4929739;29;20250;-81
2022/07/07 01:46:04;;;;;;;5.93;5.33;;;;;;;14.69;100.00;101578.03;4929099;29;20930;-80
2022/07/07 01:48:29;;;;;;;6.57;5.67;;;;;;;14.71;100.00;101578.94;4929983;29;20542;-81
2022/07/07 01:50:55;;;;;;;7.00;6.30;;;;;;;14.72;100.00;101566.88;4929979;29;20683;-83
2022/07/07 01:53:20;;;;;;;7.13;6.13;;;;;;;14.74;100.00;101562.63;4929748;29;20277;-82
2022/07/07 01:55:46;;;;;;;7.87;6.67;;;;;;;14.76;100.00;101560.94;4913625;29;20234;-81
2022/07/07 01:58:11;;;;;;;7.23;6.53;;;;;;;14.78;100.00;101556.69;4929721;29;20602;-80
2022/07/07 02:00:37;;;;;;;7.30;6.60;;;;;;;14.79;100.00;101556.72;4927122;29;20230;-82
2022/07/07 02:03:02;;;;;;;7.10;6.40;;;;;;;14.81;100.00;101549.84;4913323;29;20198;-78
2022/07/07 02:05:27;;;;;;;8.57;7.17;;;;;;;14.82;100.00;101548.16;4928584;29;20202;-81
2022/07/07 02:07:53;;;;;;;7.90;7.20;;;;;;;14.83;100.00;101550.72;4912393;29;20222;-82
2022/07/07 02:13:04;;;;;;;7.57;6.87;;;;;;;14.83;100.00;101530.09;4912996;29;20190;-82
2022/07/07 02:15:31;;;;;;;7.27;6.57;;;;;;;14.85;100.00;101532.69;4932240;29;20346;-81
2022/07/07 02:17:56;;;;;;;6.10;5.50;;;;;;;14.87;100.00;101533.59;4916502;29;20560;-82
2022/07/07 02:20:22;;;;;;;7.10;6.40;;;;;;;14.90;100.00;101533.63;4915638;29;20273;-83
2022/07/07 02:22:47;;;;;;;6.27;5.73;;;;;;;14.91;100.00;101531.06;4917164;29;20197;-80
2022/07/07 02:25:12;;;;;;;7.63;6.93;;;;;;;14.89;100.00;101537.94;4916463;29;20202;-80
2022/07/07 02:27:38;;;;;;;7.47;6.77;;;;;;;14.93;100.00;101531.09;4933057;29;20240;-82
2022/07/07 02:30:04;;;;;;;7.93;7.20;;;;;;;14.93;100.00;101526.81;4916555;29;20742;-82
2022/07/07 02:32:29;;;;;;;8.60;7.70;;;;;;;14.95;100.00;101530.25;4917078;29;20186;-82
2022/07/07 02:34:58;;;;;;;10.20;9.30;;;;;;;14.96;100.00;101518.25;4900202;29;20186;-81
2022/07/07 02:37:26;;;;;;;10.87;9.80;;;;;;;14.96;100.00;101518.25;4916294;29;20647;-80
2022/07/07 02:39:52;;;;;;;10.97;9.77;;;;;;;14.98;100.00;101519.13;4916469;29;20221;-82
2022/07/07 02:42:17;;;;;;;12.20;10.90;;;;;;;14.99;100.00;101518.25;4918320;29;20191;-82
2022/07/07 02:44:43;;;;;;;12.97;11.67;;;;;;;15.01;100.00;101514.00;4916477;29;20193;-82
2022/07/07 02:47:08;;;;;;;14.13;12.63;;;;;;;15.02;100.00;101514.03;4918516;29;20218;-84
2022/07/07 02:49:34;;;;;;;13.77;12.40;;;;;;;15.03;100.00;101509.72;4903847;29;20839;-84
2022/07/07 02:52:00;;;;;;;14.03;12.53;;;;;;;15.05;100.00;101506.31;4919737;29;20189;-83
2022/07/07 02:54:25;;;;;;;16.30;12.77;;;;;;;15.07;100.00;101498.59;4919946;29;20190;-81
2022/07/07 02:56:51;;;;;;;15.83;14.13;;;;;;;15.08;100.00;101502.91;4919012;29;20306;-83
2022/07/07 02:59:17;;;;;;;16.03;14.30;;;;;;;15.10;100.00;101499.47;4904580;29;20204;-82
2022/07/07 03:01:42;;;;;;;18.00;13.50;;;;;;;15.11;100.00;101497.78;4920515;29;20226;-80
2022/07/07 03:04:08;;;;;;;16.70;14.20;;;;;;;15.12;100.00;101490.06;4918770;29;20195;-82
2022/07/07 03:06:33;;;;;;;16.93;15.13;;;;;;;15.12;100.00;101489.19;4918464;29;20297;-83
2022/07/07 03:08:59;;;;;;;18.70;15.13;;;;;;;15.15;100.00;101484.06;4903271;29;20194;-83
2022/07/07 03:11:24;;;;;;;19.63;15.83;;;;;;;15.17;100.00;101484.94;4921003;29;20703;-83
2022/07/07 03:13:49;;;;;;;19.13;16.27;;;;;;;15.18;100.00;101484.09;4919817;29;20238;-83
2022/07/07 03:16:15;;;;;;;19.43;16.27;;;;;;;15.20;100.00;101484.97;4920180;29;20221;-81
2022/07/07 03:18:40;;;;;;;19.47;17.10;;;;;;;15.20;100.00;101472.94;4919717;29;20202;-82
2022/07/07 03:21:06;;;;;;;21.00;18.20;;;;;;;15.19;100.00;101476.38;4918212;29;20305;-83
2022/07/07 03:23:31;;;;;;;20.57;18.03;;;;;;;15.24;100.00;101479.00;4918815;29;20198;-83
2022/07/07 03:25:57;;;;;;;21.20;18.30;;;;;;;15.23;100.00;101475.56;4901975;29;20567;-82
2022/07/07 03:28:22;;;;;;;23.67;19.43;;;;;;;15.25;100.00;101475.56;4903245;29;20499;-82
2022/07/07 03:30:48;;;;;;;22.73;20.00;;;;;;;15.27;100.00;101467.00;4919949;29;20587;-84
2022/07/07 03:33:13;;;;;;;22.17;19.47;;;;;;;15.28;100.00;101463.56;4921009;29;20563;-82
2022/07/07 03:35:40;;;;;;;21.33;19.10;;;;;;;15.29;100.00;101467.03;4901708;29;20613;-83
2022/07/07 03:38:06;;;;;;;23.10;19.27;;;;;;;15.29;100.00;101470.44;4918038;29;20189;-84
2022/07/07 03:40:32;;;;;;;23.37;20.37;;;;;;;15.31;100.00;101458.44;4917788;29;20218;-83
2022/07/07 03:42:58;;;;;;;24.50;21.73;;;;;;;15.33;100.00;101463.63;4902365;29;20676;-82
2022/07/07 03:45:23;;;;;;;23.97;20.47;;;;;;;15.34;100.00;101457.63;4917452;29;20273;-83
2022/07/07 03:47:50;;;;;;;26.63;22.17;;;;;;;15.34;100.00;101463.66;4915800;29;20218;-83
2022/07/07 03:50:15;;;;;;;25.47;21.97;;;;;;;15.36;100.00;101454.22;4915850;29;20260;-82
2022/07/07 03:52:41;;;;;;;26.47;22.77;;;;;;;15.38;100.00;101455.09;4915244;29;20210;-82
2022/07/07 03:55:08;;;;;;;27.77;23.33;;;;;;;15.40;100.00;101448.25;4899561;29;20765;-82
2022/07/07 03:57:34;;;;;;;28.53;23.80;;;;;;;15.39;100.00;101449.09;4899363;29;20202;-84
2022/07/07 04:00:00;;;;;;;26.73;23.00;;;;;;;15.42;100.00;101446.53;4916050;29;20206;-82
2022/07/07 04:02:25;;;;;;;31.63;25.63;;;;;;;15.43;100.00;101442.25;4900409;29;20186;-82
2022/07/07 04:04:51;;;;;;;27.47;23.57;;;;;;;15.44;100.00;101444.84;4914354;29;20235;-80
2022/07/07 04:07:16;;;;;;;28.90;24.50;;;;;;;15.44;100.00;101442.25;4899712;29;20226;-83
2022/07/07 04:09:42;;;;;;;29.90;25.07;;;;;;;15.45;100.00;101438.81;4899717;29;20234;-83
2022/07/07 04:12:08;;;;;;;28.73;24.03;;;;;;;15.46;100.00;101443.13;4899999;29;20190;-82
2022/07/07 04:14:33;;;;;;;31.63;23.93;;;;;;;15.45;100.00;101438.81;4915335;29;20197;-80
2022/07/07 04:16:59;;;;;;;30.17;25.23;;;;;;;15.47;100.00;101436.25;4915243;29;20703;-81
2022/07/07 04:19:24;;;;;;;29.03;24.73;;;;;;;15.46;100.00;101435.38;4899788;29;20687;-82
2022/07/07 04:21:49;;;;;;;31.53;25.73;;;;;;;15.47;100.00;101436.25;4914724;29;20186;-82
2022/07/07 04:24:15;;;;;;;31.33;25.03;;;;;;;15.47;100.00;101431.09;4900409;29;20214;-81
2022/07/07 04:26:40;;;;;;;27.17;24.00;;;;;;;15.49;100.00;101431.97;4915092;29;20222;-82
2022/07/07 04:29:06;;;;;;;28.73;23.53;;;;;;;15.50;100.00;101428.53;4915911;29;20392;-81
2022/07/07 04:31:31;;;;;;;27.60;23.27;;;;;;;15.51;100.00;101425.97;4899923;29;20194;-83
2022/07/07 04:33:57;;;;;;;28.13;24.17;;;;;;;15.53;100.00;101425.97;4917505;29;20618;-82
2022/07/07 04:36:22;;;;;;;27.17;23.50;;;;;;;15.52;100.00;101432.84;4914664;29;20269;-82
2022/07/07 04:38:48;;;;;;;30.37;23.73;;;;;;;15.52;100.00;101424.25;4915738;29;20224;-82
2022/07/07 04:41:13;;;;;;;27.30;23.47;;;;;;;15.53;100.00;101423.41;4916505;29;20214;-83
2022/07/07 04:43:39;;;;;;;29.43;23.70;;;;;;;15.51;100.00;101423.38;4900873;29;20200;-83
2022/07/07 04:46:04;;;;;;;27.50;24.50;;;;;;;15.52;100.00;101419.09;4915716;29;20675;-82
2022/07/07 04:48:30;;;;;;;29.03;22.77;;;;;;;15.53;100.00;101413.06;4915369;29;20179;-82
2022/07/07 04:50:55;;;;;;;27.57;23.30;;;;;;;15.55;100.00;101407.06;4915965;29;20703;-84
2022/07/07 04:53:21;;;;;;;27.03;23.10;;;;;;;15.57;100.00;101412.25;4915888;29;20261;-83
2022/07/07 04:55:46;;;;;;;27.00;23.13;;;;;;;15.57;100.00;101407.09;4915812;29;20629;-83
2022/07/07 04:58:12;;;;;;;26.03;23.20;;;;;;;15.57;100.00;101400.19;4916558;29;20253;-82
2022/07/07 05:00:37;;;;;;;30.17;24.63;;;;;;;15.59;100.00;101395.03;4917043;29;20683;-82
2022/07/07 05:03:03;;;;;;;30.20;25.10;;;;;;;15.57;100.00;101402.75;4900759;29;20213;-81
2022/07/07 05:05:28;;;;;;;31.20;25.80;;;;;;;15.56;100.00;101406.22;4900002;29;20261;-83
2022/07/07 05:07:54;;;;;;;32.20;26.73;;;;;;;15.57;100.00;101407.09;4900852;29;20230;-83
2022/07/07 05:10:19;;;;;;;33.13;27.63;;;;;;;15.57;100.00;101407.94;4900402;29;20217;-83
2022/07/07 05:12:45;;;;;;;34.07;27.27;;;;;;;15.58;100.00;101406.22;4917369;29;20194;-81
2022/07/07 05:15:10;;;;;;;30.57;26.40;;;;;;;15.59;100.00;101400.19;4916810;29;20210;-83
2022/07/07 05:17:36;;;;;;;33.63;26.17;;;;;;;15.62;100.00;101395.94;4900896;29;20640;-82
2022/07/07 05:20:03;;;;;;;30.30;24.83;;;;;;;15.61;100.00;101399.38;4900190;29;20265;-81
2022/07/07 05:22:28;;;;;;;28.00;23.03;;;;;;;15.61;100.00;101399.38;4916500;29;20190;-82
2022/07/07 05:24:54;;;;;;;27.93;21.70;;;;;;;15.64;100.00;101399.41;4918725;29;20197;-84
2022/07/07 05:27:19;;;;;;;22.77;19.90;;;;;;;15.63;100.00;101409.72;4901141;29;20218;-82
2022/07/07 05:29:45;;;;;;;22.03;19.40;;;;;;;15.64;100.00;101401.97;4901153;29;20206;-82
2022/07/07 05:32:10;;;;;;;20.67;17.80;;;;;;;15.67;100.00;101402.00;4900827;29;20187;-82
2022/07/07 05:34:36;;;;;;;19.60;15.87;;;;;;;15.68;100.00;101405.44;4900670;29;20302;-83
2022/07/07 05:37:01;;;;;;;18.53;16.53;;;;;;;15.69;100.00;101404.59;4917396;29;20191;-81
2022/07/07 05:39:28;;;;;;;17.53;15.63;;;;;;;15.71;100.00;101402.91;4902022;29;20723;-84
2022/07/07 05:41:54;;;;;;;17.10;14.83;;;;;;;15.72;100.00;101408.06;4917351;29;20182;-80
2022/07/07 05:44:19;;;;;;;17.17;15.30;;;;;;;15.74;100.00;101414.09;4917256;29;20559;-84
2022/07/07 05:46:44;;;;;;;15.73;14.13;;;;;;;15.76;100.00;101411.53;4916253;29;20221;-83
2022/07/07 05:49:10;;;;;;;14.53;13.00;;;;;;;15.76;100.00;101402.09;4904274;29;20249;-83
2022/07/07 05:51:35;;;;;;;14.00;12.53;;;;;;;15.79;100.00;101409.84;4905485;29;20219;-82
2022/07/07 05:54:01;;;;;;;15.43;12.77;;;;;;;15.83;100.00;101402.97;4922828;29;20266;-83
2022/07/07 05:56:26;;;;;;;13.43;12.13;;;;;;;15.88;100.00;101409.91;4904652;29;20190;-83
2022/07/07 05:58:52;;;;;;;12.73;11.53;;;;;;;15.92;100.00;101406.50;4922735;29;20616;-80
2022/07/07 06:01:17;;;;;;;12.50;11.20;;;;;;;16.01;100.00;101416.88;4920748;29;20217;-83
2022/07/07 06:03:43;;;;;;;10.57;9.57;;;;;;;15.98;100.00;101416.00;4905302;29;20622;-82
2022/07/07 06:06:08;;;;;;;10.97;9.97;;;;;;;16.04;100.00;101418.63;4920099;29;20269;-84
2022/07/07 06:08:34;;;;;;;10.70;9.70;;;;;;;16.06;100.00;101416.91;4905635;29;20331;-83
2022/07/07 06:10:59;;;;;;;10.13;9.13;;;;;;;16.19;100.00;101418.72;4904496;29;20214;-84
2022/07/07 06:13:24;;;;;;;11.67;8.60;;;;;;;16.24;100.00;101417.00;4905015;29;20198;-81
2022/07/07 06:15:50;;;;;;;8.20;7.40;;;;;;;16.31;100.00;101419.63;4920721;29;20195;-82
2022/07/07 06:18:15;;;;;;;7.83;7.03;;;;;;;16.35;100.00;101412.78;4919718;29;20187;-84
2022/07/07 06:20:41;;;;;;;7.93;7.13;;;;;;;16.39;100.00;101417.13;4920313;29;20644;-84
2022/07/07 06:23:06;;;;;;;6.00;5.50;;;;;;;16.46;100.00;101413.72;4920707;29;20213;-83
2022/07/07 06:25:32;;;;;;;5.87;5.30;;;;;;;16.49;100.00;101414.59;4921828;29;20219;-83
2022/07/07 06:27:58;;;;;;;5.93;5.43;;;;;;;16.43;100.00;101416.28;4921880;29;20218;-83
2022/07/07 06:30:24;;;;;;;6.30;5.70;;;;;;;16.53;100.00;101412.91;4920876;29;20245;-80
2022/07/07 06:32:50;;;;;;;5.37;4.87;;;;;;;16.52;100.00;101416.31;4921719;29;20644;-82
2022/07/07 06:35:15;;;;;;;14.97;5.27;;;;;;;16.50;100.00;101418.94;4920557;29;20190;-80
2022/07/07 06:37:41;;;;;;;5.80;4.93;;;;;;;16.61;100.00;101421.53;4921601;29;20199;-84
2022/07/07 06:40:07;;;;;;;5.93;5.27;;;;;;;16.65;100.00;101424.16;4924490;29;20237;-85
2022/07/07 06:42:33;;;;;;;4.47;4.07;;;;;;;16.76;100.00;101419.88;4923396;29;20186;-83
2022/07/07 06:45:04;;;;;;;4.67;4.27;;;;;;;16.94;100.00;101409.59;4922211;29;20258;-82
2022/07/07 06:47:30;;;;;;;3.63;3.33;;;;;;;17.02;100.00;101415.66;4924363;29;20217;-85
2022/07/07 06:49:55;;;;;;;3.70;3.40;;;;;;;17.25;100.00;101416.56;4908255;29;20758;-82
2022/07/07 06:52:21;;;;;;;2.90;2.70;;;;;;;17.49;100.00;101410.56;4925310;29;20191;-83
2022/07/07 06:54:46;;;;;;;2.30;2.00;;;;;;;17.68;100.00;101418.34;4925348;29;20679;-83
2022/07/07 06:57:12;;;;;;;1.90;1.80;;;;;;;17.93;100.00;101417.47;4924813;29;20723;-84
2022/07/07 06:59:37;;;;;;;2.87;1.53;;;;;;;18.05;98.99;101414.84;4925719;29;20786;-85
2022/07/07 07:02:03;;;;;;;1.33;1.23;;;;;;;18.10;97.07;101413.09;4927749;29;20645;-85
2022/07/07 07:04:28;;;;;;;1.80;1.37;;;;;;;18.46;97.05;101420.81;4929189;29;20187;-82
2022/07/07 07:06:54;;;;;;;1.63;1.30;;;;;;;18.40;95.83;101418.25;4925319;29;20218;-83
2022/07/07 07:09:19;;;;;;;1.03;0.90;;;;;;;18.28;95.02;101422.59;4912781;29;20253;-84
2022/07/07 07:11:45;;;;;;;1.00;0.90;;;;;;;18.40;95.36;101417.38;4929549;29;20202;-84
2022/07/07 07:14:13;;;;;;;1.40;1.00;;;;;;;18.42;93.94;101410.47;4912062;29;20190;-85
2022/07/07 07:16:39;;;;;;;1.20;1.10;;;;;;;18.77;93.42;101418.97;4910914;29;20629;-84
2022/07/07 07:19:05;;;;;;;1.53;1.00;;;;;;;19.02;92.38;101418.81;4910612;29;20246;-84
2022/07/07 07:21:30;;;;;;;1.27;0.73;;;;;;;19.28;91.16;101418.69;4910937;29;20194;-83
2022/07/07 07:23:56;;;;;;;1.53;1.10;;;;;;;19.36;90.98;101420.38;4929669;29;20202;-84
2022/07/07 07:26:21;;;;;;;3.53;1.23;;;;;;;19.46;89.05;101426.38;4926126;29;20199;-82
2022/07/07 07:28:47;;;;;;;1.90;1.30;;;;;;;19.30;88.27;101420.41;4928429;29;20190;-83
2022/07/07 07:31:12;;;;;;;1.40;1.10;;;;;;;19.06;89.78;101419.66;4924642;29;20583;-82
2022/07/07 07:33:38;;;;;;;2.87;1.67;;;;;;;18.90;89.46;101424.09;4925519;29;20190;-84
2022/07/07 07:36:07;;;;;;;1.30;1.20;;;;;;;18.86;89.60;101427.59;4940860;29;20197;-83
2022/07/07 07:38:35;;;;;;;2.90;1.60;;;;;;;18.88;89.30;101430.19;4926094;29;20198;-83
2022/07/07 07:41:02;;;;;;;2.57;1.70;;;;;;;18.98;89.06;101424.91;4909277;29;20230;-83
2022/07/07 07:43:28;;;;;;;3.00;1.53;;;;;;;18.95;89.29;101437.06;4923861;29;20190;-83
2022/07/07 07:45:54;;;;;;;1.80;1.57;;;;;;;18.88;90.40;101433.63;4922411;29;20205;-84
2022/07/07 07:48:19;;;;;;;2.17;1.77;;;;;;;18.71;89.98;101430.25;4922835;29;20366;-83
2022/07/07 07:50:44;;;;;;;2.83;1.70;;;;;;;18.64;90.07;101430.25;4907509;29;20206;-83
2022/07/07 07:53:10;;;;;;;2.83;1.63;;;;;;;19.11;88.64;101428.31;4907389;29;20198;-84
2022/07/07 07:55:35;;;;;;;1.93;1.40;;;;;;;19.72;86.61;101434.84;4923574;29;20246;-83
2022/07/07 07:58:01;;;;;;;1.80;1.37;;;;;;;19.65;86.38;101440.94;4923360;29;20205;-84
2022/07/07 08:00:27;;;;;;;2.53;1.33;;;;;;;19.49;87.99;101437.59;4923587;29;20234;-83
2022/07/07 08:02:52;;;;;;;2.67;1.40;;;;;;;19.37;87.66;101440.28;4905899;29;20186;-84
2022/07/07 08:05:18;;;;;;;2.37;1.40;;;;;;;19.26;89.16;101451.63;4922068;29;20688;-82
2022/07/07 08:07:45;;;;;;;3.77;1.57;;;;;;;19.33;89.76;101441.19;4905177;29;20242;-84
2022/07/07 08:10:12;;;;;;;3.23;1.30;;;;;;;19.47;88.86;101441.06;4904747;29;20211;-84
2022/07/07 08:12:38;;;;;;;2.70;1.30;;;;;;;20.10;87.26;101444.06;4905526;29;20631;-83
2022/07/07 08:15:04;;;;;;;4.37;1.33;;;;;;;20.19;86.25;101443.97;4903592;29;20195;-84
2022/07/07 08:17:30;;;;;;;3.23;1.40;;;;;;;20.44;85.27;101444.53;4920100;29;20275;-83
2022/07/07 08:19:55;;;;;;;2.43;1.40;;;;;;;20.73;84.40;101447.69;4920551;29;20740;-84
2022/07/07 08:22:21;;;;;;;4.17;1.70;;;;;;;20.73;82.49;101439.88;4920570;29;20221;-83
2022/07/07 08:24:46;;;;;;;1.93;1.60;;;;;;;21.13;81.87;101441.94;4903959;29;20289;-85
2022/07/07 08:27:12;;;;;;;3.17;1.90;;;;;;;21.39;81.08;101445.06;4921631;29;20234;-84
2022/07/07 08:29:38;;;;;;;4.70;1.77;;;;;;;21.62;78.29;101435.13;4920692;29;20214;-83
2022/07/07 08:32:08;;;;;;;4.33;1.87;;;;;;;21.67;78.06;101435.03;4921271;29;20182;-84
2022/07/07 08:34:34;;;;;;;3.10;1.90;;;;;;;21.29;78.53;101448.66;4905180;29;20228;-83
2022/07/07 08:37:00;;;;;;;2.27;1.73;;;;;;;20.89;80.57;101451.81;4904171;29;20190;-84
2022/07/07 08:39:25;;;;;;;3.50;1.50;;;;;;;20.29;81.79;101456.00;4922474;29;20214;-83
2022/07/07 08:41:51;;;;;;;3.90;1.63;;;;;;;20.09;81.93;101457.91;4921353;29;20222;-84
2022/07/07 08:44:18;;;;;;;2.53;1.30;;;;;;;20.08;84.49;101461.38;4904433;29;20194;-85
2022/07/07 08:46:43;;;;;;;3.20;1.27;;;;;;;19.58;86.30;101492.09;4901290;29;20218;-85
2022/07/07 08:49:09;;;;;;;3.97;1.80;;;;;;;18.91;89.05;101490.72;4917111;29;20566;-83
2022/07/07 08:51:40;;;;;;;4.50;1.43;;;;;;;18.76;90.02;101487.31;4917959;29;20272;-82
2022/07/07 08:54:06;;;;;;;3.67;1.70;;;;;;;18.82;88.90;101495.94;4900764;29;20234;-84
2022/07/07 08:56:32;;;;;;;5.47;1.77;;;;;;;18.91;88.96;101500.22;4919387;29;20197;-85
2022/07/07 08:58:58;;;;;;;2.47;1.53;;;;;;;18.93;88.79;101501.09;4921459;29;20255;-84
2022/07/07 09:01:23;;;;;;;4.90;2.50;;;;;;;19.09;89.81;101502.75;4907532;29;20705;-84
2022/07/07 09:03:49;;;;;;;4.60;1.90;;;;;;;19.25;89.53;101507.88;4924711;29;20241;-84
2022/07/07 09:06:15;;;;;;;3.07;1.83;;;;;;;19.76;88.58;101504.97;4909689;29;20561;-84
2022/07/07 09:08:40;;;;;;;4.07;1.80;;;;;;;20.13;86.69;101500.38;4911262;29;20253;-84
2022/07/07 09:11:09;;;;;;;4.63;1.90;;;;;;;20.69;86.31;101498.91;4942963;29;20560;-84
2022/07/07 09:13:35;;;;;;;5.57;1.87;;;;;;;21.32;84.31;101498.13;4927027;29;20190;-84
2022/07/07 09:16:14;;;;;;;6.60;2.53;;;;;;;21.50;82.58;101502.22;4926366;29;20186;-83
2022/07/07 09:18:42;;;;;;;4.17;1.90;;;;;;;22.01;79.88;101504.91;4911125;29;20221;-84
2022/07/07 09:21:31;;;;;;;4.03;1.93;;;;;;;22.24;81.33;101499.28;4924575;29;20214;-83
2022/07/07 09:23:59;;;;;;;5.83;2.10;;;;;;;22.13;78.81;101499.50;4928906;29;20277;-83
2022/07/07 09:26:37;;;;;;;4.13;1.70;;;;;;;21.82;78.24;101505.22;4928911;29;20210;-84
2022/07/07 09:29:07;;;;;;;4.20;1.70;;;;;;;21.75;78.10;101514.06;4929984;29;20228;-85
2022/07/07 09:32:05;;;;;;;5.87;1.70;;;;;;;21.73;76.39;101514.06;4928491;29;20198;-85
2022/07/07 09:34:35;;;;;;;4.60;1.97;;;;;;;21.81;77.74;101521.78;4916489;29;20202;-84
2022/07/07 09:39:54;;;;;;;5.20;1.90;;;;;;;22.47;75.61;101525.88;4925374;29;20222;-85
2022/07/07 09:42:30;;;;;;;3.33;1.47;;;;;;;23.02;72.31;101529.13;4925835;29;20213;-83
2022/07/07 09:45:00;;;;;;;2.27;1.10;;;;;;;22.99;73.51;101524.00;4905910;29;20194;-85
2022/07/07 09:47:25;;;;;;;3.97;1.70;;;;;;;23.14;71.43;101528.91;4907173;29;20211;-86
2022/07/07 09:50:17;;;;;;;4.55;1.50;;;;;;;23.86;70.53;101529.03;4922784;29;20210;-84
2022/07/07 09:52:49;;;;;;;5.47;1.70;;;;;;;23.76;68.08;101531.00;4906179;29;20206;-82
2022/07/07 09:55:15;;;;;;;3.90;1.40;;;;;;;22.72;69.55;101540.22;4921993;29;20222;-82
2022/07/07 09:57:42;;;;;;;3.37;1.40;;;;;;;21.86;71.77;101548.63;4907349;29;20243;-84
2022/07/07 10:00:09;;;;;;;3.70;1.57;;;;;;;21.31;75.51;101558.97;4922124;29;20217;-83
2022/07/07 10:02:38;;;;;;;5.83;1.57;;;;;;;21.17;75.97;101560.00;4921923;29;20195;-84
2022/07/07 10:05:04;;;;;;;2.43;1.20;;;;;;;20.86;74.42;101564.69;4921984;29;20183;-84
2022/07/07 10:07:32;;;;;;;5.13;1.73;;;;;;;20.67;73.62;101572.69;4922735;29;20221;-83
2022/07/07 10:10:01;;;;;;;4.60;1.30;;;;;;;20.63;73.22;101578.84;4907190;29;20225;-82
2022/07/07 10:12:28;;;;;;;4.00;1.20;;;;;;;20.75;73.20;101587.38;4923190;29;20656;-83
2022/07/07 10:15:14;;;;;;;5.03;1.27;;;;;;;20.87;72.84;101582.03;4907446;29;20182;-84
2022/07/07 10:17:41;;;;;;;2.60;1.03;;;;;;;21.18;72.74;101585.16;4906285;29;20233;-83
2022/07/07 10:20:07;;;;;;;3.83;1.20;;;;;;;22.21;69.05;101575.88;4920523;29;20226;-84
2022/07/07 10:22:35;;;;;;;4.37;1.40;;;;;;;22.92;67.22;101577.25;4904551;29;20209;-82
2022/07/07 10:25:03;;;;;;;2.27;1.13;;;;;;;23.08;67.47;101591.75;4917211;29;20199;-85
2022/07/07 10:27:29;;;;;;;2.47;1.30;;;;;;;23.21;65.86;101589.78;4901268;29;20222;-82
2022/07/07 10:29:57;;;;;;;4.73;1.40;;;;;;;23.30;66.30;101587.84;4902222;29;20297;-82
2022/07/07 10:32:40;;;;;;;4.20;1.40;;;;;;;23.67;64.04;101588.78;4918371;29;20186;-84
2022/07/07 10:35:07;;;;;;;3.63;1.38;;;;;;;22.97;65.12;101603.31;4916307;29;20644;-82
2022/07/07 10:37:45;;;;;;;4.17;1.63;;;;;;;22.34;65.90;101606.13;4919139;29;20181;-83
2022/07/07 10:40:17;;;;;;;3.50;1.67;;;;;;;22.06;66.21;101615.28;4918692;29;20213;-82
2022/07/07 10:42:59;;;;;;;5.20;1.67;;;;;;;21.80;66.89;101622.66;4919097;29;20570;-81
2022/07/07 10:45:26;;;;;;;2.97;1.83;;;;;;;21.85;67.78;101627.78;4918457;29;20221;-83
2022/07/07 10:47:51;;;;;;;7.03;2.37;;;;;;;21.92;66.91;101626.81;4918063;29;20218;-84
2022/07/07 10:50:26;;;;;;;5.10;2.40;;;;;;;21.97;65.54;101630.22;4919435;29;20712;-84
2022/07/07 10:52:52;;;;;;;4.73;2.20;;;;;;;22.41;63.78;101624.31;4904370;29;20766;-84
2022/07/07 10:55:18;;;;;;;5.40;2.13;;;;;;;22.47;63.39;101619.88;4903110;29;20598;-85
2022/07/07 10:57:45;;;;;;;2.47;1.90;;;;;;;22.76;63.28;101622.88;4921511;29;20198;-83
2022/07/07 11:00:12;;;;;;;3.70;1.70;;;;;;;22.64;63.54;101625.69;4919800;29;20215;-83
2022/07/07 11:02:49;;;;;;;5.37;1.53;;;;;;;22.61;63.18;101625.72;4904140;29;20285;-84
2022/07/07 11:05:14;;;;;;;4.73;2.00;;;;;;;22.73;62.45;101628.13;4904815;29;20198;-83
2022/07/07 11:08:02;;;;;;;4.07;1.83;;;;;;;22.61;61.95;101630.09;4903516;29;20585;-84
2022/07/07 11:10:46;;;;;;;2.83;1.57;;;;;;;22.27;62.92;101635.84;4919704;29;20226;-83
2022/07/07 11:13:23;;;;;;;4.70;1.40;;;;;;;21.99;63.39;101641.50;4904511;29;20194;-84
2022/07/07 11:16:08;;;;;;;5.20;1.70;;;;;;;22.03;64.03;101637.97;4935498;29;20334;-84
2022/07/07 11:18:34;;;;;;;6.07;1.80;;;;;;;22.35;64.15;101631.34;4904118;29;20179;-85
2022/07/07 11:21:02;;;;;;;3.40;1.40;;;;;;;23.05;61.83;101645.81;4903827;29;20250;-82